createdAt,value
2019-06-26T00:00:48.500Z,101170.00
2019-06-26T00:03:25.122Z,101158.00
2019-06-26T00:05:54.709Z,101160.00
2019-06-26T00:08:30.896Z,101161.00
2019-06-26T00:11:00.505Z,101155.00
2019-06-26T00:13:36.609Z,101149.00
2019-06-26T00:16:06.218Z,101148.00
2019-06-26T00:18:48.403Z,101148.00
2019-06-26T00:21:21.175Z,101151.00
2019-06-26T00:23:56.248Z,101149.00
2019-06-26T00:26:25.708Z,101145.00
2019-06-26T00:29:01.497Z,101141.00
2019-06-26T00:31:38.000Z,101143.00
2019-06-26T00:34:07.667Z,101146.00
2019-06-26T00:36:44.193Z,101133.00
2019-06-26T00:39:13.707Z,101132.00
2019-06-26T00:41:49.460Z,101140.00
2019-06-26T00:44:19.064Z,101131.00
2019-06-26T00:46:54.778Z,101127.00
2019-06-26T00:49:30.738Z,101126.00
2019-06-26T00:52:07.321Z,101122.00
2019-06-26T00:54:48.121Z,101126.00
2019-06-26T00:57:17.723Z,101129.00
2019-06-26T00:59:53.790Z,101120.00
2019-06-26T01:02:23.339Z,101143.00
2019-06-26T01:05:00.569Z,101129.00
2019-06-26T01:07:30.257Z,101127.00
2019-06-26T01:10:05.891Z,101128.00
2019-06-26T01:12:35.484Z,101120.00
2019-06-26T01:15:20.248Z,101119.00
2019-06-26T01:17:56.756Z,101118.00
2019-06-26T01:20:33.240Z,101108.00
2019-06-26T01:23:02.869Z,101110.00
2019-06-26T01:25:39.056Z,101114.00
2019-06-26T01:28:08.580Z,101105.00
2019-06-26T01:30:44.646Z,101103.00
2019-06-26T01:33:14.102Z,101108.00
2019-06-26T01:35:49.645Z,101100.00
2019-06-26T01:38:19.092Z,101094.00
2019-06-26T01:40:55.059Z,101086.00
2019-06-26T01:43:24.506Z,101089.00
2019-06-26T01:46:00.825Z,101076.00
2019-06-26T01:48:30.248Z,101070.00
2019-06-26T01:51:06.494Z,101077.00
2019-06-26T01:53:42.116Z,101072.00
2019-06-26T01:56:11.705Z,101069.00
2019-06-26T01:58:47.901Z,101064.00
2019-06-26T02:01:17.436Z,101058.00
2019-06-26T02:03:54.249Z,101063.00
2019-06-26T02:06:23.925Z,101060.00
2019-06-26T02:08:53.441Z,101066.00
2019-06-26T02:11:29.510Z,101058.00
2019-06-26T02:13:58.964Z,101061.00
2019-06-26T02:16:34.960Z,101064.00
2019-06-26T02:19:12.976Z,101058.00
2019-06-26T02:21:49.102Z,101047.00
2019-06-26T02:24:25.579Z,101047.00
2019-06-26T02:27:02.041Z,101047.00
2019-06-26T02:29:38.528Z,101041.00
2019-06-26T02:32:15.146Z,101035.00
2019-06-26T02:34:44.734Z,101034.00
2019-06-26T02:37:20.751Z,101034.00
2019-06-26T02:39:56.524Z,101031.00
2019-06-26T02:42:25.975Z,101033.00
2019-06-26T02:45:02.876Z,101030.00
2019-06-26T02:47:38.789Z,101027.00
2019-06-26T02:50:18.502Z,101030.00
2019-06-26T02:52:47.951Z,101019.00
2019-06-26T02:55:24.231Z,101025.00
2019-06-26T02:57:53.838Z,101021.00
2019-06-26T03:00:30.185Z,101024.00
2019-06-26T03:02:59.697Z,101030.00
2019-06-26T03:05:36.288Z,101021.00
2019-06-26T03:08:12.176Z,101028.00
2019-06-26T03:10:48.724Z,101027.00
2019-06-26T03:13:24.652Z,101023.00
2019-06-26T03:16:00.622Z,101018.00
2019-06-26T03:18:30.169Z,101020.00
2019-06-26T03:21:06.187Z,101019.00
2019-06-26T03:23:35.712Z,101009.00
2019-06-26T03:26:11.492Z,101017.00
2019-06-26T03:28:47.187Z,101018.00
2019-06-26T03:31:16.708Z,101018.00
2019-06-26T03:33:46.177Z,101023.00
2019-06-26T03:36:22.284Z,101022.00
2019-06-26T03:38:51.747Z,101018.00
2019-06-26T03:41:21.219Z,101012.00
2019-06-26T03:43:57.652Z,101019.00
2019-06-26T03:46:27.114Z,101023.00
2019-06-26T03:49:08.669Z,101017.00
2019-06-26T03:51:45.210Z,101020.00
2019-06-26T03:54:14.642Z,101017.00
2019-06-26T03:56:50.543Z,101016.00
2019-06-26T03:59:20.076Z,101017.00
2019-06-26T04:01:56.523Z,101011.00
2019-06-26T04:04:26.004Z,101009.00
2019-06-26T04:06:55.455Z,101018.00
2019-06-26T04:09:31.593Z,101006.00
2019-06-26T04:12:07.168Z,101003.00
2019-06-26T04:14:36.678Z,101000.00
2019-06-26T04:17:12.742Z,101004.00
2019-06-26T04:19:48.485Z,100999.00
2019-06-26T04:22:17.945Z,100994.00
2019-06-26T04:24:53.847Z,100985.00
2019-06-26T04:27:23.415Z,100990.00
2019-06-26T04:29:59.956Z,100989.00
2019-06-26T04:32:36.229Z,100986.00
2019-06-26T04:35:14.106Z,100986.00
2019-06-26T04:37:43.626Z,100988.00
2019-06-26T04:40:20.552Z,100991.00
2019-06-26T04:42:50.147Z,100985.00
2019-06-26T04:45:26.737Z,100987.00
2019-06-26T04:48:02.968Z,100983.00
2019-06-26T04:50:40.680Z,100981.00
2019-06-26T04:53:10.216Z,100985.00
2019-06-26T04:55:39.749Z,100977.00
2019-06-26T04:58:16.306Z,100979.00
2019-06-26T05:00:45.768Z,100975.00
2019-06-26T05:03:21.824Z,100975.00
2019-06-26T05:05:57.479Z,100972.00
2019-06-26T05:08:27.018Z,100966.00
2019-06-26T05:11:03.235Z,100968.00
2019-06-26T05:13:32.776Z,100963.00
2019-06-26T05:16:15.096Z,100965.00
2019-06-26T05:18:40.303Z,100965.00
2019-06-26T05:21:09.811Z,100961.00
2019-06-26T05:23:45.453Z,100958.00
2019-06-26T05:26:14.970Z,100957.00
2019-06-26T05:28:50.750Z,100969.00
2019-06-26T05:31:27.385Z,100962.00
2019-06-26T05:33:56.906Z,100963.00
2019-06-26T05:36:33.505Z,100957.00
2019-06-26T05:39:03.050Z,100946.00
2019-06-26T05:41:39.192Z,100949.00
2019-06-26T05:44:08.801Z,100951.00
2019-06-26T05:46:44.626Z,100944.00
2019-06-26T05:49:26.969Z,100949.00
2019-06-26T05:51:56.431Z,100950.00
2019-06-26T05:54:32.987Z,100958.00
2019-06-26T05:57:02.445Z,100950.00
2019-06-26T05:59:38.487Z,100951.00
2019-06-26T06:02:08.981Z,100948.00
2019-06-26T06:04:45.084Z,100950.00
2019-06-26T06:07:14.648Z,100941.00
2019-06-26T06:09:50.348Z,100952.00
2019-06-26T06:12:26.218Z,100942.00
2019-06-26T06:14:55.759Z,100953.00
2019-06-26T06:17:32.202Z,100948.00
2019-06-26T06:20:08.288Z,100950.00
2019-06-26T06:22:44.821Z,100946.00
2019-06-26T06:25:14.483Z,100955.00
2019-06-26T06:31:30.297Z,100954.00
2019-06-26T06:34:06.608Z,100950.00
2019-06-26T06:36:49.799Z,100946.00
2019-06-26T06:39:38.491Z,100948.00
2019-06-26T06:42:20.833Z,100952.00
2019-06-26T06:44:57.363Z,100949.00
2019-06-26T06:47:39.756Z,100951.00
2019-06-26T06:50:28.703Z,100951.00
2019-06-26T06:53:10.653Z,100948.00
2019-06-26T06:55:53.420Z,100977.00
2019-06-26T06:58:43.235Z,100945.00
2019-06-26T07:01:32.089Z,100945.00
2019-06-26T07:04:21.640Z,100945.00
2019-06-26T07:07:04.472Z,100943.00
2019-06-26T07:09:47.142Z,100934.00
2019-06-26T07:12:23.227Z,100934.00
2019-06-26T07:15:06.122Z,100937.00
2019-06-26T07:17:49.194Z,100934.00
2019-06-26T07:20:31.603Z,100930.00
2019-06-26T07:23:08.170Z,100927.00
2019-06-26T07:25:57.791Z,100930.00
2019-06-26T07:28:46.813Z,100932.00
2019-06-26T07:31:38.420Z,100824.00
2019-06-26T07:34:20.288Z,100937.00
2019-06-26T07:37:03.229Z,100938.00
2019-06-26T07:39:45.793Z,100934.00
2019-06-26T07:42:22.308Z,100939.00
2019-06-26T07:45:05.087Z,100934.00
2019-06-26T07:47:47.524Z,100935.00
2019-06-26T07:50:32.337Z,100940.00
2019-06-26T07:53:14.081Z,100941.00
2019-06-26T07:55:49.917Z,100935.00
2019-06-26T07:58:26.202Z,100935.00
2019-06-26T08:01:09.050Z,100935.00
2019-06-26T08:03:57.998Z,100938.00
2019-06-26T08:06:40.564Z,100937.00
2019-06-26T08:09:23.919Z,100937.00
2019-06-26T08:12:06.876Z,100938.00
2019-06-26T08:14:42.975Z,100937.00
2019-06-26T08:17:32.185Z,100933.00
2019-06-26T08:20:16.588Z,100927.00
2019-06-26T08:22:59.687Z,100934.00
2019-06-26T08:25:47.635Z,100923.00
2019-06-26T08:28:29.997Z,100925.00
2019-06-26T08:31:18.884Z,100924.00
2019-06-26T08:34:08.080Z,100921.00
2019-06-26T08:36:58.676Z,100931.00
2019-06-26T08:39:47.914Z,100925.00
2019-06-26T08:42:36.950Z,100914.00
2019-06-26T08:45:19.654Z,100913.00
2019-06-26T08:48:22.788Z,100914.00
2019-06-26T08:50:59.911Z,100902.00
2019-06-26T08:53:44.895Z,100904.00
2019-06-26T08:56:25.093Z,100908.00
2019-06-26T08:59:00.804Z,100895.00
2019-06-26T09:01:44.176Z,100903.00
2019-06-26T09:04:26.887Z,100905.00
2019-06-26T09:07:09.937Z,100901.00
2019-06-26T09:09:58.267Z,100905.00
2019-06-26T09:12:47.371Z,100895.00
2019-06-26T09:15:17.036Z,100912.00
2019-06-26T09:17:53.196Z,100892.00
2019-06-26T09:20:35.937Z,100897.00
2019-06-26T09:23:13.318Z,100895.00
2019-06-26T09:25:42.927Z,100884.00
2019-06-26T09:28:32.857Z,100877.00
2019-06-26T09:31:21.648Z,100883.00
2019-06-26T09:34:04.119Z,100877.00
2019-06-26T09:36:47.099Z,100878.00
2019-06-26T09:39:16.711Z,100886.00
2019-06-26T09:41:59.067Z,100875.00
2019-06-26T09:44:48.317Z,100867.00
2019-06-26T09:47:31.673Z,100867.00
2019-06-26T09:50:15.263Z,100858.00
2019-06-26T09:52:51.270Z,100856.00
2019-06-26T09:55:34.035Z,100861.00
2019-06-26T09:58:23.604Z,100849.00
2019-06-26T10:01:12.668Z,100852.00
2019-06-26T10:04:02.054Z,100846.00
2019-06-26T10:06:51.588Z,100848.00
2019-06-26T10:09:34.664Z,100835.00
2019-06-26T10:12:10.245Z,100833.00
2019-06-26T10:14:52.538Z,100837.00
2019-06-26T10:17:35.154Z,100827.00
2019-06-26T10:20:18.850Z,100834.00
2019-06-26T10:23:01.537Z,100822.00
2019-06-26T10:25:51.260Z,100827.00
2019-06-26T10:28:27.704Z,100832.00
2019-06-26T10:31:10.298Z,100818.00
2019-06-26T10:33:59.639Z,100819.00
2019-06-26T10:36:42.401Z,100816.00
2019-06-26T10:39:25.076Z,100810.00
2019-06-26T10:42:10.427Z,100719.00
2019-06-26T10:44:59.634Z,100803.00
2019-06-26T10:47:52.009Z,100806.00
2019-06-26T10:50:27.659Z,100798.00
2019-06-26T10:53:09.974Z,100797.00
2019-06-26T10:55:59.480Z,100793.00
2019-06-26T10:58:42.397Z,100797.00
2019-06-26T11:01:18.550Z,100793.00
2019-06-26T11:04:08.054Z,100786.00
2019-06-26T11:06:57.043Z,100790.00
2019-06-26T11:09:46.765Z,100788.00
2019-06-26T11:12:22.290Z,100785.00
2019-06-26T11:15:04.150Z,100783.00
2019-06-26T11:17:53.649Z,100780.00
2019-06-26T11:20:36.766Z,100768.00
2019-06-26T11:23:19.109Z,100765.00
2019-06-26T11:26:01.297Z,100764.00
2019-06-26T11:28:37.296Z,100761.00
2019-06-26T11:31:19.632Z,100758.00
2019-06-26T11:33:56.114Z,100759.00
2019-06-26T11:36:44.761Z,100754.00
2019-06-26T11:39:28.977Z,100754.00
2019-06-26T11:42:11.988Z,100753.00
2019-06-26T11:44:54.040Z,100745.00
2019-06-26T11:47:40.195Z,100740.00
2019-06-26T11:50:29.675Z,100735.00
2019-06-26T11:53:06.182Z,100737.00
2019-06-26T11:55:49.013Z,100741.00
2019-06-26T11:58:38.408Z,100729.00
2019-06-26T12:01:14.007Z,100732.00
2019-06-26T12:03:55.990Z,100726.00
2019-06-26T12:06:38.259Z,100720.00
2019-06-26T12:09:28.151Z,100711.00
2019-06-26T12:12:10.606Z,100705.00
2019-06-26T12:14:46.406Z,100705.00
2019-06-26T12:17:29.385Z,100702.00
2019-06-26T12:20:18.575Z,100702.00
2019-06-26T12:22:55.298Z,100702.00
2019-06-26T12:25:31.163Z,100701.00
2019-06-26T12:28:20.465Z,100700.00
2019-06-26T12:30:56.262Z,100685.00
2019-06-26T12:33:39.434Z,100677.00
2019-06-26T12:36:29.398Z,100678.00
2019-06-26T12:39:05.242Z,100674.00
2019-06-26T12:41:54.702Z,100675.00
2019-06-26T12:44:36.804Z,100669.00
2019-06-26T12:47:25.718Z,100666.00
2019-06-26T12:50:14.313Z,100664.00
2019-06-26T12:52:56.946Z,100659.00
2019-06-26T12:55:42.700Z,100657.00
2019-06-26T12:58:32.147Z,100652.00
2019-06-26T13:01:14.143Z,100646.00
2019-06-26T13:03:56.831Z,100647.00
2019-06-26T13:06:32.653Z,100641.00
2019-06-26T13:09:16.619Z,100636.00
2019-06-26T13:11:53.751Z,100634.00
2019-06-26T13:14:36.690Z,100634.00
2019-06-26T13:17:19.441Z,100628.00
2019-06-26T13:20:02.385Z,100623.00
2019-06-26T13:22:50.806Z,100620.00
2019-06-26T13:25:33.122Z,100613.00
2019-06-26T13:28:15.995Z,100616.00
2019-06-26T13:31:05.285Z,100613.00
2019-06-26T13:33:47.641Z,100606.00
2019-06-26T13:36:30.203Z,100596.00
2019-06-26T13:39:14.516Z,100591.00
2019-06-26T13:41:57.183Z,100583.00
2019-06-26T13:44:39.735Z,100581.00
2019-06-26T13:47:29.166Z,100578.00
2019-06-26T13:50:20.906Z,100573.00
2019-06-26T13:53:10.508Z,100573.00
2019-06-26T13:55:52.826Z,100570.00
2019-06-26T13:58:42.321Z,100559.00
2019-06-26T14:01:25.302Z,100554.00
2019-06-26T14:04:07.358Z,100548.00
2019-06-26T14:06:56.875Z,100541.00
2019-06-26T14:09:39.302Z,100539.00
2019-06-26T14:12:18.945Z,100537.00
2019-06-26T14:14:59.281Z,100541.00
2019-06-26T14:17:48.328Z,100532.00
2019-06-26T14:20:31.017Z,100528.00
2019-06-26T14:23:13.902Z,100518.00
2019-06-26T14:26:02.629Z,100517.00
2019-06-26T14:28:44.730Z,100518.00
2019-06-26T14:31:20.424Z,100516.00
2019-06-26T14:34:03.433Z,100505.00
2019-06-26T14:36:45.350Z,100502.00
2019-06-26T14:39:21.407Z,100506.00
2019-06-26T14:42:03.962Z,100504.00
2019-06-26T14:44:46.091Z,100501.00
2019-06-26T14:47:35.801Z,100502.00
2019-06-26T14:50:19.106Z,100504.00
2019-06-26T14:53:02.091Z,100495.00
2019-06-26T14:55:37.377Z,100496.00
2019-06-26T14:58:20.245Z,100498.00
2019-06-26T15:00:58.496Z,100484.00
2019-06-26T15:03:41.779Z,100490.00
2019-06-26T15:06:17.615Z,100485.00
2019-06-26T15:09:00.253Z,100482.00
2019-06-26T15:11:42.363Z,100490.00
2019-06-26T15:14:18.570Z,100482.00
2019-06-26T15:16:54.480Z,100484.00
2019-06-26T15:19:37.195Z,100482.00
2019-06-26T15:22:26.289Z,100486.00
2019-06-26T15:25:09.955Z,100477.00
2019-06-26T15:27:46.158Z,100478.00
2019-06-26T15:30:23.156Z,100483.00
2019-06-26T15:33:12.302Z,100485.00
2019-06-26T15:35:55.027Z,100483.00
2019-06-26T15:38:31.847Z,100480.00
2019-06-26T15:41:21.923Z,100467.00
2019-06-26T15:43:57.835Z,100472.00
2019-06-26T15:46:40.045Z,100467.00
2019-06-26T15:49:16.084Z,100473.00
2019-06-26T15:52:14.145Z,100476.00
2019-06-26T15:54:36.544Z,100465.00
2019-06-26T15:57:19.239Z,100460.00
2019-06-26T15:59:54.876Z,100462.00
2019-06-26T16:02:37.945Z,100461.00
2019-06-26T16:05:19.777Z,100466.00
2019-06-26T16:07:57.667Z,100465.00
2019-06-26T16:10:40.271Z,100465.00
2019-06-26T16:13:23.102Z,100461.00
2019-06-26T16:16:12.260Z,100456.00
2019-06-26T16:18:59.033Z,100464.00
2019-06-26T16:21:48.250Z,100465.00
2019-06-26T16:24:31.208Z,100464.00
2019-06-26T16:27:13.727Z,100473.00
2019-06-26T16:29:49.731Z,100457.00
2019-06-26T16:32:32.307Z,100472.00
2019-06-26T16:35:12.151Z,100468.00
2019-06-26T16:37:52.698Z,100476.00
2019-06-26T16:40:29.222Z,100476.00
2019-06-26T16:43:12.057Z,100475.00
2019-06-26T16:46:01.290Z,100477.00
2019-06-26T16:48:36.887Z,100479.00
2019-06-26T16:51:20.119Z,100486.00
2019-06-26T16:54:03.250Z,100476.00
2019-06-26T16:56:45.332Z,100484.00
2019-06-26T16:59:21.741Z,100482.00
2019-06-26T17:02:07.071Z,100480.00
2019-06-26T17:04:55.509Z,100483.00
2019-06-26T17:07:37.468Z,100481.00
2019-06-26T17:10:26.444Z,100476.00
2019-06-26T17:13:09.388Z,100475.00
2019-06-26T17:15:45.438Z,100467.00
2019-06-26T17:18:21.352Z,100469.00
2019-06-26T17:21:03.433Z,100467.00
2019-06-26T17:23:39.756Z,100458.00
2019-06-26T17:26:22.312Z,100459.00
2019-06-26T17:29:11.771Z,100457.00
2019-06-26T17:32:00.711Z,100459.00
2019-06-26T17:34:50.421Z,100459.00
2019-06-26T17:37:39.403Z,100454.00
2019-06-26T17:40:28.442Z,100458.00
2019-06-26T17:43:12.629Z,100450.00
2019-06-26T17:45:49.681Z,100447.00
2019-06-26T17:48:32.446Z,100445.00
2019-06-26T17:51:22.129Z,100447.00
2019-06-26T17:54:11.932Z,100437.00
2019-06-26T17:56:47.604Z,100432.00
2019-06-26T17:59:30.103Z,100425.00
2019-06-26T18:02:19.081Z,100428.00
2019-06-26T18:05:01.480Z,100436.00
2019-06-26T18:07:37.655Z,100432.00
2019-06-26T18:10:20.321Z,100436.00
2019-06-26T18:13:02.087Z,100428.00
2019-06-26T18:15:44.427Z,100421.00
2019-06-26T18:18:33.518Z,100421.00
2019-06-26T18:21:23.643Z,100416.00
2019-06-26T18:24:06.148Z,100417.00
2019-06-26T18:26:42.648Z,100441.00
2019-06-26T18:29:25.115Z,100424.00
2019-06-26T18:32:07.662Z,100437.00
2019-06-26T18:34:56.736Z,100435.00
2019-06-26T18:37:38.465Z,100420.00
2019-06-26T18:40:16.887Z,100420.00
2019-06-26T18:42:59.218Z,100414.00
2019-06-26T18:45:41.111Z,100412.00
2019-06-26T18:48:30.273Z,100414.00
2019-06-26T18:51:12.974Z,100425.00
2019-06-26T18:53:53.522Z,100430.00
2019-06-26T18:56:33.136Z,100455.00
2019-06-26T18:59:22.457Z,100473.00
2019-06-26T19:02:22.852Z,100495.00
2019-06-26T19:05:03.220Z,100490.00
2019-06-26T19:07:46.103Z,100480.00
2019-06-26T19:10:29.076Z,100507.00
2019-06-26T19:13:05.846Z,100504.00
2019-06-26T19:15:55.564Z,100489.00
2019-06-26T19:18:44.931Z,100511.00
2019-06-26T19:21:30.136Z,100502.00
2019-06-26T19:24:10.399Z,100504.00
2019-06-26T19:26:51.023Z,100513.00
2019-06-26T19:29:27.440Z,100512.00
2019-06-26T19:32:09.488Z,100514.00
2019-06-26T19:34:45.381Z,100520.00
2019-06-26T19:37:28.905Z,100511.00
2019-06-26T19:40:08.277Z,100511.00
2019-06-26T19:42:48.505Z,100502.00
2019-06-26T19:45:25.439Z,100501.00
2019-06-26T19:48:09.203Z,100499.00
2019-06-26T19:50:58.647Z,100493.00
2019-06-26T19:53:41.519Z,100497.00
2019-06-26T19:56:20.029Z,100488.00
2019-06-26T19:59:01.558Z,100491.00
2019-06-26T20:01:38.098Z,100509.00
2019-06-26T20:04:25.031Z,100492.00
2019-06-26T20:07:15.825Z,100495.00
2019-06-26T20:10:01.931Z,100485.00
2019-06-26T20:13:00.505Z,100495.00
2019-06-26T20:15:40.191Z,100500.00
2019-06-26T20:18:23.017Z,100484.00
2019-06-26T20:21:07.342Z,100482.00
2019-06-26T20:24:10.369Z,100493.00
2019-06-26T20:26:55.671Z,100491.00
2019-06-26T20:29:44.862Z,100487.00
2019-06-26T20:32:38.262Z,100497.00
2019-06-26T20:35:27.807Z,100493.00
2019-06-26T20:38:17.021Z,100483.00
2019-06-26T20:40:59.249Z,100484.00
2019-06-26T20:43:51.361Z,100491.00
2019-06-26T20:46:33.896Z,100492.00
2019-06-26T20:49:16.689Z,100498.00
2019-06-26T20:52:06.256Z,100491.00
2019-06-26T20:55:00.575Z,100502.00
2019-06-26T21:00:40.475Z,100489.00
2019-06-26T21:03:23.519Z,100481.00
2019-06-26T21:06:16.706Z,100475.00
2019-06-26T21:09:05.357Z,100485.00
2019-06-26T21:11:47.909Z,100491.00
2019-06-26T21:14:29.778Z,100489.00
2019-06-26T21:17:18.712Z,100479.00
2019-06-26T21:20:01.905Z,100490.00
2019-06-26T21:22:47.362Z,100486.00
2019-06-26T21:25:38.527Z,100493.00
2019-06-26T21:28:23.204Z,100489.00
2019-06-26T21:31:16.933Z,100493.00
2019-06-26T21:33:58.265Z,100487.00
2019-06-26T21:36:34.067Z,100486.00
2019-06-26T21:39:16.732Z,100490.00
2019-06-26T21:41:52.441Z,100488.00
2019-06-26T21:44:34.247Z,100486.00
2019-06-26T21:47:12.177Z,100497.00
2019-06-26T21:49:54.714Z,100489.00
2019-06-26T21:52:43.655Z,100490.00
2019-06-26T21:55:34.255Z,100487.00
2019-06-26T21:58:04.193Z,100484.00
2019-06-26T22:00:53.425Z,100483.00
2019-06-26T22:03:37.177Z,100480.00
2019-06-26T22:06:16.210Z,100475.00
2019-06-26T22:08:59.276Z,100476.00
2019-06-26T22:11:48.576Z,100467.00
2019-06-26T22:14:37.710Z,100468.00
2019-06-26T22:17:28.295Z,100471.00
2019-06-26T22:20:21.664Z,100467.00
2019-06-26T22:23:03.295Z,100473.00
2019-06-26T22:25:50.465Z,100468.00
2019-06-26T22:28:27.026Z,100466.00
2019-06-26T22:31:12.148Z,100456.00
2019-06-26T22:33:50.586Z,100452.00
2019-06-26T22:36:33.359Z,100446.00
2019-06-26T22:39:27.563Z,100456.00
2019-06-26T22:42:16.765Z,100452.00
2019-06-26T22:44:59.389Z,100455.00
2019-06-26T22:47:42.824Z,100465.00
2019-06-26T22:50:32.062Z,100466.00
2019-06-26T22:53:14.600Z,100470.00
2019-06-26T22:56:06.929Z,100469.00
2019-06-26T22:58:45.347Z,100472.00
2019-06-26T23:01:34.516Z,100475.00
2019-06-26T23:04:16.934Z,100476.00
2019-06-26T23:06:59.615Z,100473.00
2019-06-26T23:09:42.768Z,100473.00
2019-06-26T23:12:26.572Z,100479.00
2019-06-26T23:15:09.646Z,100479.00
2019-06-26T23:17:59.000Z,100477.00
2019-06-26T23:20:41.120Z,100476.00
2019-06-26T23:23:19.372Z,100475.00
2019-06-26T23:25:59.852Z,100478.00
2019-06-26T23:28:42.615Z,100483.00
2019-06-26T23:31:34.950Z,100482.00
2019-06-26T23:34:17.198Z,100487.00
2019-06-26T23:37:07.358Z,100476.00
2019-06-26T23:39:54.116Z,100476.00
2019-06-26T23:42:43.974Z,100485.00
2019-06-26T23:45:33.824Z,100486.00
2019-06-26T23:48:24.017Z,100491.00
2019-06-26T23:51:00.337Z,100482.00
2019-06-26T23:53:42.794Z,100491.00
2019-06-26T23:56:40.500Z,100506.00
2019-06-26T23:59:11.447Z,100492.00
